createdAt,value
2023-03-03T00:01:33.074Z,42.87
2023-03-03T00:04:00.638Z,40.07
2023-03-03T00:06:30.028Z,40.57
2023-03-03T00:08:57.833Z,38.97
2023-03-03T00:11:25.087Z,38.57
2023-03-03T00:13:54.491Z,40.10
2023-03-03T00:16:39.305Z,38.73
2023-03-03T00:19:17.997Z,40.87
2023-03-03T00:21:49.012Z,39.43
2023-03-03T00:24:21.366Z,44.73
2023-03-03T00:26:56.541Z,46.20
2023-03-03T00:29:37.915Z,45.50
2023-03-03T00:32:18.162Z,44.77
2023-03-03T00:34:45.603Z,40.93
2023-03-03T00:37:27.913Z,41.13
2023-03-03T00:40:01.543Z,42.43
2023-03-03T00:42:28.906Z,41.63
2023-03-03T00:45:00.910Z,40.20
2023-03-03T00:47:31.080Z,41.03
2023-03-03T00:50:07.043Z,41.40
2023-03-03T00:52:36.331Z,39.43
2023-03-03T00:55:04.488Z,42.20
2023-03-03T00:57:31.770Z,40.37
2023-03-03T00:59:59.065Z,41.07
2023-03-03T01:02:26.334Z,40.87
2023-03-03T01:04:56.481Z,39.43
2023-03-03T01:07:24.302Z,39.93
2023-03-03T01:09:51.516Z,39.73
2023-03-03T01:12:18.765Z,40.43
2023-03-03T01:14:46.057Z,41.20
2023-03-03T01:17:13.309Z,40.33
2023-03-03T01:19:40.506Z,42.87
2023-03-03T01:22:07.740Z,40.73
2023-03-03T01:24:34.993Z,40.70
2023-03-03T01:27:02.216Z,42.43
2023-03-03T01:29:29.433Z,39.90
2023-03-03T01:31:56.696Z,42.80
2023-03-03T01:34:23.927Z,40.57
2023-03-03T01:36:51.171Z,41.20
2023-03-03T01:39:18.392Z,39.33
2023-03-03T01:41:45.664Z,36.60
2023-03-03T01:44:15.240Z,37.80
2023-03-03T01:46:48.068Z,38.43
2023-03-03T01:49:29.174Z,40.10
2023-03-03T01:51:59.108Z,40.63
2023-03-03T01:54:31.119Z,45.20
2023-03-03T01:57:02.939Z,45.77
2023-03-03T01:59:35.893Z,43.30
2023-03-03T02:02:03.859Z,42.37
2023-03-03T02:04:30.914Z,39.93
2023-03-03T02:07:11.237Z,40.53
2023-03-03T02:09:48.703Z,41.13
2023-03-03T02:12:19.453Z,40.43
2023-03-03T02:14:46.434Z,39.70
2023-03-03T02:17:13.315Z,39.37
2023-03-03T02:20:19.281Z,39.70
2023-03-03T02:22:55.424Z,37.80
2023-03-03T02:25:42.288Z,38.53
2023-03-03T02:28:09.243Z,36.87
2023-03-03T02:30:40.027Z,37.87
2023-03-03T02:33:07.287Z,38.83
2023-03-03T02:35:39.532Z,38.33
2023-03-03T02:38:21.997Z,40.23
2023-03-03T02:41:05.053Z,37.73
2023-03-03T02:43:42.446Z,38.60
2023-03-03T02:46:09.332Z,38.53
2023-03-03T02:48:36.134Z,39.43
2023-03-03T02:51:02.989Z,41.07
2023-03-03T02:53:29.930Z,38.73
2023-03-03T02:55:56.800Z,38.97
2023-03-03T02:58:23.742Z,38.33
2023-03-03T03:00:50.619Z,38.63
2023-03-03T03:03:17.514Z,38.80
2023-03-03T03:05:44.364Z,40.57
2023-03-03T03:08:11.168Z,41.83
2023-03-03T03:10:38.092Z,38.07
2023-03-03T03:13:05.010Z,38.33
2023-03-03T03:15:31.822Z,35.70
2023-03-03T03:17:58.766Z,35.30
2023-03-03T03:20:25.589Z,35.50
2023-03-03T03:22:52.450Z,33.80
2023-03-03T03:25:19.329Z,34.83
2023-03-03T03:27:46.202Z,33.67
2023-03-03T03:30:13.687Z,35.80
2023-03-03T03:32:40.538Z,34.33
2023-03-03T03:35:07.863Z,33.43
2023-03-03T03:37:34.657Z,33.50
2023-03-03T03:40:01.516Z,35.97
2023-03-03T03:42:28.740Z,35.93
2023-03-03T03:44:55.962Z,36.13
2023-03-03T03:47:23.227Z,35.53
2023-03-03T03:49:50.088Z,34.27
2023-03-03T03:52:17.381Z,33.87
2023-03-03T03:54:44.666Z,31.07
2023-03-03T03:57:12.159Z,34.77
2023-03-03T03:59:39.431Z,33.60
2023-03-03T04:02:06.393Z,33.10
2023-03-03T04:04:33.302Z,31.73
2023-03-03T04:07:00.630Z,30.57
2023-03-03T04:09:28.565Z,32.03
2023-03-03T04:11:55.768Z,32.67
2023-03-03T04:14:22.994Z,31.97
2023-03-03T04:16:49.832Z,33.40
2023-03-03T04:19:17.098Z,33.43
2023-03-03T04:21:44.349Z,34.30
2023-03-03T04:24:12.102Z,30.37
2023-03-03T04:26:39.358Z,31.97
2023-03-03T04:29:06.860Z,33.70
2023-03-03T04:31:34.098Z,35.63
2023-03-03T04:34:00.926Z,40.53
2023-03-03T04:36:27.755Z,39.77
2023-03-03T04:38:54.610Z,39.10
2023-03-03T04:41:21.465Z,43.07
2023-03-03T04:43:48.331Z,38.90
2023-03-03T04:46:15.307Z,41.33
2023-03-03T04:48:42.586Z,43.40
2023-03-03T04:51:09.446Z,41.57
2023-03-03T04:53:38.376Z,39.07
2023-03-03T04:56:05.713Z,38.17
2023-03-03T04:58:32.613Z,37.10
2023-03-03T05:01:00.014Z,36.57
2023-03-03T05:03:27.405Z,38.73
2023-03-03T05:05:54.444Z,36.70
2023-03-03T05:08:21.722Z,39.13
2023-03-03T05:10:53.092Z,31.40
2023-03-03T05:13:20.339Z,31.47
2023-03-03T05:15:55.842Z,30.83
2023-03-03T05:18:24.346Z,30.67
2023-03-03T05:20:52.093Z,28.27
2023-03-03T05:23:20.025Z,25.30
2023-03-03T05:25:50.518Z,24.73
2023-03-03T05:28:17.993Z,23.50
2023-03-03T05:30:45.148Z,23.67
2023-03-03T05:33:16.721Z,21.97
2023-03-03T05:35:44.093Z,22.03
2023-03-03T05:38:11.484Z,23.63
2023-03-03T05:40:38.956Z,22.77
2023-03-03T05:43:07.208Z,24.90
2023-03-03T05:45:35.448Z,25.10
2023-03-03T05:48:03.387Z,24.87
2023-03-03T05:50:30.257Z,29.07
2023-03-03T05:52:57.913Z,27.13
2023-03-03T05:55:25.707Z,26.13
2023-03-03T05:57:52.966Z,25.17
2023-03-03T06:00:20.448Z,25.80
2023-03-03T06:02:47.829Z,26.50
2023-03-03T06:05:15.229Z,25.70
2023-03-03T06:07:42.577Z,27.23
2023-03-03T06:10:10.147Z,25.67
2023-03-03T06:12:39.120Z,23.70
2023-03-03T06:15:07.456Z,21.50
2023-03-03T06:17:35.065Z,20.93
2023-03-03T06:20:03.063Z,19.13
2023-03-03T06:22:30.692Z,18.20
2023-03-03T06:24:57.924Z,19.30
2023-03-03T06:27:25.161Z,19.70
2023-03-03T06:29:52.407Z,20.07
2023-03-03T06:32:19.792Z,20.77
2023-03-03T06:34:47.001Z,20.87
2023-03-03T06:37:14.285Z,21.30
2023-03-03T06:39:41.577Z,21.27
2023-03-03T06:42:09.675Z,21.10
2023-03-03T06:44:37.195Z,21.77
2023-03-03T06:47:04.431Z,23.60
2023-03-03T06:49:31.596Z,21.27
2023-03-03T06:52:01.789Z,21.07
2023-03-03T06:54:30.865Z,21.23
2023-03-03T06:57:06.502Z,20.90
2023-03-03T06:59:33.758Z,18.37
2023-03-03T07:02:01.168Z,16.07
2023-03-03T07:04:33.850Z,16.67
2023-03-03T07:07:06.810Z,14.10
2023-03-03T07:09:34.034Z,13.77
2023-03-03T07:12:10.992Z,15.00
2023-03-03T07:14:42.956Z,14.77
2023-03-03T07:17:16.593Z,13.20
2023-03-03T07:19:44.339Z,17.43
2023-03-03T07:22:14.620Z,18.77
2023-03-03T07:24:43.400Z,18.63
2023-03-03T07:27:10.636Z,20.73
2023-03-03T07:29:41.318Z,19.73
2023-03-03T07:32:20.541Z,18.70
2023-03-03T07:34:49.077Z,16.37
2023-03-03T07:37:35.101Z,15.77
2023-03-03T07:40:04.545Z,15.17
2023-03-03T07:42:40.145Z,16.43
2023-03-03T07:45:25.734Z,17.00
2023-03-03T07:47:53.022Z,19.60
2023-03-03T07:50:22.916Z,21.90
2023-03-03T07:52:56.994Z,20.57
2023-03-03T07:55:40.695Z,21.50
2023-03-03T07:58:15.639Z,20.77
2023-03-03T08:00:46.184Z,19.43
2023-03-03T08:03:17.846Z,18.70
2023-03-03T08:05:47.957Z,20.90
2023-03-03T08:08:31.984Z,19.13
2023-03-03T08:11:00.304Z,21.50
2023-03-03T08:13:41.882Z,21.67
2023-03-03T08:16:11.773Z,20.23
2023-03-03T08:19:02.129Z,19.73
2023-03-03T08:21:29.202Z,18.43
2023-03-03T08:23:56.096Z,20.17
2023-03-03T08:26:24.584Z,16.10
2023-03-03T08:28:52.484Z,16.57
2023-03-03T08:31:34.356Z,19.57
2023-03-03T08:34:06.758Z,20.87
2023-03-03T08:36:34.797Z,21.30
2023-03-03T08:39:02.620Z,21.13
2023-03-03T08:41:29.442Z,19.47
2023-03-03T08:43:56.290Z,17.37
2023-03-03T08:46:23.212Z,15.93
2023-03-03T08:48:50.101Z,13.73
2023-03-03T08:51:16.986Z,14.27
2023-03-03T08:53:43.841Z,16.87
2023-03-03T08:56:10.771Z,22.20
2023-03-03T08:58:37.781Z,19.00
2023-03-03T09:01:05.160Z,17.90
2023-03-03T09:03:32.207Z,19.60
2023-03-03T09:05:59.100Z,23.17
2023-03-03T09:08:26.115Z,19.83
2023-03-03T09:10:52.986Z,20.93
2023-03-03T09:13:20.551Z,16.27
2023-03-03T09:15:49.347Z,15.63
2023-03-03T09:18:19.950Z,15.57
2023-03-03T09:20:48.012Z,16.53
2023-03-03T09:23:23.867Z,16.57
2023-03-03T09:25:51.991Z,16.80
2023-03-03T09:28:39.101Z,16.90
2023-03-03T09:31:39.738Z,16.53
2023-03-03T09:34:38.214Z,17.57
2023-03-03T09:37:24.269Z,19.30
2023-03-03T09:39:55.750Z,19.70
2023-03-03T09:42:43.066Z,19.03
2023-03-03T09:45:19.438Z,18.80
2023-03-03T09:47:56.861Z,19.00
2023-03-03T09:50:36.250Z,17.37
2023-03-03T09:53:03.509Z,17.43
2023-03-03T09:55:46.037Z,16.40
2023-03-03T09:58:36.145Z,19.87
2023-03-03T10:01:47.646Z,19.07
2023-03-03T10:04:20.957Z,23.50
2023-03-03T10:06:48.176Z,24.17
2023-03-03T10:09:41.516Z,22.40
2023-03-03T10:12:20.702Z,20.47
2023-03-03T10:14:53.899Z,21.97
2023-03-03T10:17:47.258Z,25.03
2023-03-03T10:20:50.531Z,27.40
2023-03-03T10:23:35.659Z,25.53
2023-03-03T10:26:05.549Z,23.17
2023-03-03T10:28:45.035Z,21.03
2023-03-03T10:31:35.412Z,20.10
2023-03-03T10:34:27.273Z,18.17
2023-03-03T10:36:57.586Z,21.03
2023-03-03T10:40:02.166Z,17.93
2023-03-03T10:42:40.175Z,16.73
2023-03-03T10:45:07.378Z,16.83
2023-03-03T10:47:44.016Z,18.13
2023-03-03T10:50:11.270Z,16.33
2023-03-03T10:52:49.733Z,15.90
2023-03-03T10:55:20.000Z,17.20
2023-03-03T10:57:47.182Z,18.73
2023-03-03T11:00:26.641Z,21.27
2023-03-03T11:03:30.012Z,20.63
2023-03-03T11:06:16.898Z,20.53
2023-03-03T11:09:02.783Z,19.73
2023-03-03T11:11:41.146Z,19.70
2023-03-03T11:14:10.976Z,18.13
2023-03-03T11:16:51.412Z,15.80
2023-03-03T11:19:37.110Z,15.93
2023-03-03T11:22:12.862Z,16.10
2023-03-03T11:24:51.176Z,16.00
2023-03-03T11:27:37.801Z,16.40
2023-03-03T11:30:19.595Z,15.13
2023-03-03T11:32:54.033Z,14.37
2023-03-03T11:35:34.607Z,14.90
2023-03-03T11:38:19.599Z,15.07
2023-03-03T11:40:54.955Z,16.73
2023-03-03T11:43:35.712Z,16.23
2023-03-03T11:46:13.259Z,15.13
2023-03-03T11:48:55.792Z,14.30
2023-03-03T11:51:47.747Z,14.20
2023-03-03T11:54:24.343Z,13.23
2023-03-03T11:56:53.937Z,13.57
2023-03-03T11:59:50.873Z,14.73
2023-03-03T12:02:32.313Z,14.97
2023-03-03T12:05:09.797Z,14.30
2023-03-03T12:08:02.534Z,14.40
2023-03-03T12:10:32.139Z,13.67
2023-03-03T12:13:02.713Z,15.27
2023-03-03T12:15:54.669Z,13.40
2023-03-03T12:18:43.359Z,14.87
2023-03-03T12:21:18.738Z,15.67
2023-03-03T12:24:14.119Z,14.47
2023-03-03T12:26:57.921Z,13.60
2023-03-03T12:29:39.756Z,13.87
2023-03-03T12:32:21.887Z,14.67
2023-03-03T12:34:56.129Z,14.33
2023-03-03T12:37:44.910Z,14.70
2023-03-03T12:40:33.739Z,15.67
2023-03-03T12:43:33.081Z,14.50
2023-03-03T12:46:45.051Z,14.27
2023-03-03T12:49:12.177Z,14.20
2023-03-03T12:52:06.549Z,14.77
2023-03-03T12:55:16.730Z,13.17
2023-03-03T12:58:02.591Z,13.13
2023-03-03T13:00:47.897Z,14.50
2023-03-03T13:03:55.700Z,13.50
2023-03-03T13:06:30.339Z,13.60
2023-03-03T13:09:12.471Z,12.43
2023-03-03T13:12:00.357Z,12.00
2023-03-03T13:14:45.469Z,12.33
2023-03-03T13:17:15.352Z,12.40
2023-03-03T13:19:51.601Z,11.50
2023-03-03T13:22:46.478Z,12.67
2023-03-03T13:25:38.069Z,12.77
2023-03-03T13:28:42.830Z,12.73
2023-03-03T13:31:21.690Z,13.70
2023-03-03T13:34:00.390Z,15.10
2023-03-03T13:36:34.489Z,13.07
2023-03-03T13:39:20.519Z,14.83
2023-03-03T13:41:50.405Z,14.33
2023-03-03T13:44:42.652Z,14.63
2023-03-03T13:47:24.070Z,14.97
2023-03-03T13:50:06.109Z,14.77
2023-03-03T13:52:44.639Z,13.83
2023-03-03T13:55:41.119Z,14.90
2023-03-03T13:58:07.891Z,14.47
2023-03-03T14:00:38.770Z,13.80
2023-03-03T14:03:27.361Z,15.20
2023-03-03T14:06:09.349Z,14.80
2023-03-03T14:09:00.889Z,16.80
2023-03-03T14:11:45.622Z,16.63
2023-03-03T14:14:15.542Z,15.97
2023-03-03T14:16:57.596Z,14.23
2023-03-03T14:19:32.924Z,15.53
2023-03-03T14:22:23.803Z,13.83
2023-03-03T14:25:07.131Z,15.40
2023-03-03T14:27:59.748Z,14.20
2023-03-03T14:30:39.065Z,15.30
2023-03-03T14:33:08.981Z,17.27
2023-03-03T14:35:59.435Z,16.43
2023-03-03T14:38:32.502Z,15.60
2023-03-03T14:41:11.707Z,16.50
2023-03-03T14:43:43.751Z,14.87
2023-03-03T14:46:30.501Z,14.97
2023-03-03T14:49:00.854Z,14.63
2023-03-03T14:51:44.756Z,14.57
2023-03-03T14:54:22.483Z,14.30
2023-03-03T14:57:02.223Z,16.10
2023-03-03T14:59:30.718Z,15.57
2023-03-03T15:02:18.502Z,16.50
2023-03-03T15:04:47.708Z,15.90
2023-03-03T15:07:29.374Z,16.90
2023-03-03T15:09:56.168Z,15.57
2023-03-03T15:12:25.131Z,16.63
2023-03-03T15:15:02.638Z,16.50
2023-03-03T15:17:36.789Z,14.80
2023-03-03T15:20:05.426Z,15.53
2023-03-03T15:22:41.860Z,14.30
2023-03-03T15:25:43.985Z,16.00
2023-03-03T15:28:30.108Z,15.43
2023-03-03T15:31:36.487Z,16.10
2023-03-03T15:34:25.042Z,14.03
2023-03-03T15:36:54.658Z,13.90
2023-03-03T15:39:21.471Z,13.60
2023-03-03T15:42:03.178Z,14.57
2023-03-03T15:44:35.761Z,13.77
2023-03-03T15:47:05.348Z,15.73
2023-03-03T15:49:54.272Z,14.67
2023-03-03T15:52:53.199Z,14.50
2023-03-03T15:55:57.643Z,14.87
2023-03-03T15:58:33.365Z,17.17
2023-03-03T16:01:03.237Z,16.10
2023-03-03T16:03:47.256Z,15.40
2023-03-03T16:06:37.420Z,16.53
2023-03-03T16:09:52.844Z,17.00
2023-03-03T16:12:55.372Z,16.73
2023-03-03T16:15:43.849Z,17.80
2023-03-03T16:18:44.275Z,18.20
2023-03-03T16:21:21.874Z,18.60
2023-03-03T16:23:57.102Z,18.43
2023-03-03T16:26:43.755Z,20.20
2023-03-03T16:29:16.647Z,19.87
2023-03-03T16:32:01.352Z,17.80
2023-03-03T16:34:38.688Z,18.43
2023-03-03T16:37:21.210Z,18.97
2023-03-03T16:39:57.004Z,17.80
2023-03-03T16:42:29.717Z,17.33
2023-03-03T16:45:21.786Z,18.07
2023-03-03T16:47:51.458Z,16.40
2023-03-03T16:50:37.085Z,18.23
2023-03-03T16:53:19.254Z,18.80
2023-03-03T16:56:08.294Z,18.97
2023-03-03T16:59:04.696Z,24.80
2023-03-03T17:02:04.512Z,28.90
2023-03-03T17:04:31.340Z,23.70
2023-03-03T17:07:30.151Z,22.23
2023-03-03T17:10:16.392Z,20.67
2023-03-03T17:13:08.851Z,20.53
2023-03-03T17:15:53.535Z,20.13
2023-03-03T17:18:39.179Z,20.07
2023-03-03T17:21:20.436Z,19.93
2023-03-03T17:23:56.240Z,19.27
2023-03-03T17:26:33.905Z,20.60
2023-03-03T17:29:21.896Z,19.80
2023-03-03T17:32:04.044Z,21.90
2023-03-03T17:34:38.917Z,20.73
2023-03-03T17:37:28.149Z,20.80
2023-03-03T17:40:04.165Z,21.93
2023-03-03T17:42:40.020Z,19.73
2023-03-03T17:45:12.728Z,20.27
2023-03-03T17:47:57.928Z,18.57
2023-03-03T17:51:00.800Z,17.47
2023-03-03T17:53:45.876Z,17.90
2023-03-03T17:56:33.122Z,17.37
2023-03-03T17:59:10.527Z,16.93
2023-03-03T18:02:04.817Z,15.87
2023-03-03T18:04:46.472Z,15.23
2023-03-03T18:07:13.570Z,16.67
2023-03-03T18:09:47.268Z,18.20
2023-03-03T18:12:33.628Z,17.40
2023-03-03T18:15:19.347Z,17.43
2023-03-03T18:18:15.661Z,17.47
2023-03-03T18:20:42.510Z,18.00
2023-03-03T18:23:34.176Z,18.53
2023-03-03T18:26:02.950Z,20.03
2023-03-03T18:28:50.505Z,18.97
2023-03-03T18:31:26.265Z,18.57
2023-03-03T18:34:09.281Z,18.20
2023-03-03T18:36:39.635Z,18.33
2023-03-03T18:39:14.026Z,19.07
2023-03-03T18:42:09.670Z,19.00
2023-03-03T18:44:36.705Z,18.10
2023-03-03T18:47:04.258Z,18.47
2023-03-03T18:50:14.493Z,19.27
2023-03-03T18:53:08.660Z,19.17
2023-03-03T18:56:03.209Z,23.40
2023-03-03T18:58:35.023Z,22.03
2023-03-03T19:01:33.557Z,22.37
2023-03-03T19:04:12.110Z,21.97
2023-03-03T19:06:38.969Z,21.73
2023-03-03T19:09:07.339Z,23.00
2023-03-03T19:11:49.784Z,22.60
2023-03-03T19:14:29.772Z,23.63
2023-03-03T19:16:58.344Z,22.93
2023-03-03T19:19:34.446Z,23.10
2023-03-03T19:22:27.455Z,22.93
2023-03-03T19:25:09.292Z,23.93
2023-03-03T19:27:43.389Z,24.20
2023-03-03T19:30:23.930Z,23.27
2023-03-03T19:33:08.322Z,23.40
2023-03-03T19:35:59.348Z,23.03
2023-03-03T19:38:40.959Z,24.00
2023-03-03T19:41:38.793Z,23.20
2023-03-03T19:44:20.158Z,26.20
2023-03-03T19:46:50.403Z,25.90
2023-03-03T19:49:42.305Z,27.17
2023-03-03T19:52:29.805Z,27.00
2023-03-03T19:55:15.652Z,27.23
2023-03-03T19:57:51.759Z,28.10
2023-03-03T20:00:49.628Z,28.00
2023-03-03T20:03:45.159Z,29.20
2023-03-03T20:06:20.850Z,31.47
2023-03-03T20:09:17.750Z,31.53
2023-03-03T20:11:48.377Z,29.27
2023-03-03T20:14:37.237Z,29.90
2023-03-03T20:17:13.007Z,29.03
2023-03-03T20:19:45.727Z,29.33
2023-03-03T20:22:38.642Z,30.47
2023-03-03T20:25:08.847Z,28.80
2023-03-03T20:27:53.901Z,30.93
2023-03-03T20:30:39.217Z,29.87
2023-03-03T20:33:45.648Z,30.40
2023-03-03T20:36:28.826Z,30.00
2023-03-03T20:39:08.234Z,31.47
2023-03-03T20:41:56.115Z,33.57
2023-03-03T20:44:57.767Z,32.13
2023-03-03T20:47:49.414Z,34.67
2023-03-03T20:50:28.932Z,34.13
2023-03-03T20:53:14.142Z,33.20
2023-03-03T20:55:59.990Z,34.43
2023-03-03T20:58:43.158Z,34.27
2023-03-03T21:01:26.139Z,35.73
2023-03-03T21:03:55.099Z,35.77
2023-03-03T21:06:39.141Z,37.57
2023-03-03T21:09:06.187Z,37.00
2023-03-03T21:11:33.036Z,39.37
2023-03-03T21:14:12.160Z,36.27
2023-03-03T21:16:41.920Z,36.13
2023-03-03T21:19:22.741Z,34.03
2023-03-03T21:21:50.654Z,33.23
2023-03-03T21:24:20.797Z,32.33
2023-03-03T21:26:58.937Z,31.63
2023-03-03T21:29:27.431Z,29.27
2023-03-03T21:32:01.487Z,28.87
2023-03-03T21:34:37.296Z,28.00
2023-03-03T21:37:10.045Z,28.43
2023-03-03T21:39:39.783Z,26.60
2023-03-03T21:42:08.037Z,27.03
2023-03-03T21:44:44.391Z,28.00
2023-03-03T21:47:15.204Z,27.90
2023-03-03T21:49:43.985Z,29.77
2023-03-03T21:52:12.447Z,28.70
2023-03-03T21:54:39.650Z,28.40
2023-03-03T21:57:06.654Z,28.77
2023-03-03T21:59:33.510Z,28.47
2023-03-03T22:02:00.496Z,29.87
2023-03-03T22:04:27.739Z,28.57
2023-03-03T22:06:54.763Z,27.93
2023-03-03T22:09:21.884Z,28.93
2023-03-03T22:11:49.032Z,31.10
2023-03-03T22:14:16.345Z,29.00
2023-03-03T22:16:43.479Z,27.70
2023-03-03T22:19:10.424Z,27.20
2023-03-03T22:21:38.628Z,26.03
2023-03-03T22:24:06.848Z,28.23
2023-03-03T22:26:33.928Z,29.37
2023-03-03T22:29:01.622Z,28.20
2023-03-03T22:31:29.801Z,28.93
2023-03-03T22:33:56.736Z,27.00
2023-03-03T22:36:23.642Z,25.67
2023-03-03T22:38:50.614Z,26.10
2023-03-03T22:41:18.315Z,27.33
2023-03-03T22:43:45.256Z,26.10
2023-03-03T22:46:12.286Z,25.70
2023-03-03T22:48:39.970Z,24.83
2023-03-03T22:51:07.200Z,24.70
2023-03-03T22:53:34.284Z,22.27
2023-03-03T22:56:01.489Z,22.17
2023-03-03T22:58:29.944Z,21.97
2023-03-03T23:00:57.133Z,22.23
2023-03-03T23:03:24.496Z,20.60
2023-03-03T23:05:52.137Z,19.67
2023-03-03T23:08:20.590Z,19.87
2023-03-03T23:10:48.367Z,20.50
2023-03-03T23:13:15.721Z,18.67
2023-03-03T23:15:43.069Z,17.13
2023-03-03T23:18:10.571Z,16.90
2023-03-03T23:20:38.052Z,18.23
2023-03-03T23:23:05.327Z,17.53
2023-03-03T23:25:32.693Z,17.73
2023-03-03T23:28:00.564Z,18.23
2023-03-03T23:30:27.559Z,17.87
2023-03-03T23:32:54.849Z,17.33
2023-03-03T23:35:22.372Z,17.80
2023-03-03T23:37:49.787Z,16.37
2023-03-03T23:40:17.533Z,16.33
2023-03-03T23:42:45.003Z,18.07
2023-03-03T23:45:13.183Z,18.20
2023-03-03T23:47:40.724Z,17.87
2023-03-03T23:50:09.460Z,18.33
2023-03-03T23:52:36.555Z,18.00
2023-03-03T23:55:03.965Z,18.27
2023-03-03T23:57:30.880Z,17.37
2023-03-03T23:59:57.871Z,16.47
